sensor_id;sensor_type;location;lat;lon;timestamp;pressure;altitude;pressure_sealevel;temperature;humidity
11448;BME280;43755;49.736;8.734;2023-07-31T00:00:09;97797.38;;;16.92;100.00
11448;BME280;43755;49.736;8.734;2023-07-31T00:02:11;97802.28;;;16.85;100.00
11448;BME280;43755;49.736;8.734;2023-07-31T00:04:12;97803.81;;;16.76;100.00
11448;BME280;43755;49.736;8.734;2023-07-31T00:06:13;97797.94;;;16.71;100.00
11448;BME280;43755;49.736;8.734;2023-07-31T00:08:16;97796.00;;;16.73;100.00
11448;BME280;43755;49.736;8.734;2023-07-31T00:10:17;97789.19;;;16.69;100.00
11448;BME280;43755;49.736;8.734;2023-07-31T00:12:18;97792.69;;;16.70;100.00
11448;BME280;43755;49.736;8.734;2023-07-31T00:14:18;97788.84;;;16.61;100.00
11448;BME280;43755;49.736;8.734;2023-07-31T00:16:20;97785.22;;;16.62;100.00
11448;BME280;43755;49.736;8.734;2023-07-31T00:18:21;97784.50;;;16.60;100.00
11448;BME280;43755;49.736;8.734;2023-07-31T00:20:22;97788.84;;;16.61;100.00
11448;BME280;43755;49.736;8.734;2023-07-31T00:22:23;97777.50;;;16.58;100.00
11448;BME280;43755;49.736;8.734;2023-07-31T00:24:26;97786.19;;;16.61;100.00
11448;BME280;43755;49.736;8.734;2023-07-31T00:26:27;97785.34;;;16.61;100.00
11448;BME280;43755;49.736;8.734;2023-07-31T00:28:29;97779.78;;;16.64;100.00
11448;BME280;43755;49.736;8.734;2023-07-31T00:30:30;97779.78;;;16.64;100.00
11448;BME280;43755;49.736;8.734;2023-07-31T00:32:30;97779.69;;;16.65;100.00
11448;BME280;43755;49.736;8.734;2023-07-31T00:34:32;97779.44;;;16.68;100.00
11448;BME280;43755;49.736;8.734;2023-07-31T00:36:33;97780.72;;;16.75;100.00
11448;BME280;43755;49.736;8.734;2023-07-31T00:38:35;97785.97;;;16.77;100.00
11448;BME280;43755;49.736;8.734;2023-07-31T00:40:37;97780.63;;;16.77;100.00
11448;BME280;43755;49.736;8.734;2023-07-31T00:42:39;97785.88;;;16.78;100.00
11448;BME280;43755;49.736;8.734;2023-07-31T00:44:40;97766.94;;;16.82;100.00
11448;BME280;43755;49.736;8.734;2023-07-31T00:46:42;97782.53;;;16.88;100.00
11448;BME280;43755;49.736;8.734;2023-07-31T00:48:43;97778.16;;;16.87;100.00
11448;BME280;43755;49.736;8.734;2023-07-31T00:50:45;97777.81;;;16.91;100.00
11448;BME280;43755;49.736;8.734;2023-07-31T00:52:46;97775.69;;;16.96;100.00
11448;BME280;43755;49.736;8.734;2023-07-31T00:54:48;97765.72;;;16.98;100.00
11448;BME280;43755;49.736;8.734;2023-07-31T00:56:52;97764.53;;;17.02;100.00
11448;BME280;43755;49.736;8.734;2023-07-31T00:58:54;97772.44;;;17.04;100.00
11448;BME280;43755;49.736;8.734;2023-07-31T01:00:56;97770.72;;;17.03;100.00
11448;BME280;43755;49.736;8.734;2023-07-31T01:02:57;97770.97;;;17.00;100.00
11448;BME280;43755;49.736;8.734;2023-07-31T01:04:59;97761.03;;;17.02;98.28
11448;BME280;43755;49.736;8.734;2023-07-31T01:07:07;97752.78;;;17.05;98.06
11448;BME280;43755;49.736;8.734;2023-07-31T01:09:20;97756.06;;;17.08;96.72
11448;BME280;43755;49.736;8.734;2023-07-31T01:11:27;97757.47;;;17.14;96.44
11448;BME280;43755;49.736;8.734;2023-07-31T01:13:30;97753.78;;;17.15;94.53
11448;BME280;43755;49.736;8.734;2023-07-31T01:15:31;97763.63;;;17.14;95.33
11448;BME280;43755;49.736;8.734;2023-07-31T01:17:32;97764.28;;;17.18;95.71
11448;BME280;43755;49.736;8.734;2023-07-31T01:19:34;97759.66;;;17.20;96.53
11448;BME280;43755;49.736;8.734;2023-07-31T01:21:51;97755.31;;;17.19;93.99
11448;BME280;43755;49.736;8.734;2023-07-31T01:24:14;97765.66;;;17.24;95.18
11448;BME280;43755;49.736;8.734;2023-07-31T01:26:25;97756.53;;;17.26;95.71
11448;BME280;43755;49.736;8.734;2023-07-31T01:28:34;97754.00;;;17.25;94.57
11448;BME280;43755;49.736;8.734;2023-07-31T01:30:43;97755.72;;;17.26;96.18
11448;BME280;43755;49.736;8.734;2023-07-31T01:32:47;97759.66;;;17.20;95.35
11448;BME280;43755;49.736;8.734;2023-07-31T01:34:49;97756.97;;;17.20;96.33
11448;BME280;43755;49.736;8.734;2023-07-31T01:36:52;97753.94;;;17.13;97.27
11448;BME280;43755;49.736;8.734;2023-07-31T01:38:57;97745.91;;;17.13;97.25
11448;BME280;43755;49.736;8.734;2023-07-31T01:40:59;97743.44;;;17.10;96.18
11448;BME280;43755;49.736;8.734;2023-07-31T01:43:01;97742.16;;;17.16;98.22
11448;BME280;43755;49.736;8.734;2023-07-31T01:45:04;97744.66;;;17.06;98.14
11448;BME280;43755;49.736;8.734;2023-07-31T01:47:05;97747.31;;;17.06;99.97
11448;BME280;43755;49.736;8.734;2023-07-31T01:49:06;97739.00;;;16.98;99.34
11448;BME280;43755;49.736;8.734;2023-07-31T01:51:08;97739.66;;;17.02;100.00
11448;BME280;43755;49.736;8.734;2023-07-31T01:53:09;97740.72;;;16.99;99.04
11448;BME280;43755;49.736;8.734;2023-07-31T01:55:12;97742.53;;;16.99;99.59
11448;BME280;43755;49.736;8.734;2023-07-31T01:57:13;97735.47;;;16.98;99.55
11448;BME280;43755;49.736;8.734;2023-07-31T01:59:16;97731.31;;;16.94;100.00
11448;BME280;43755;49.736;8.734;2023-07-31T02:01:17;97732.53;;;16.90;99.86
11448;BME280;43755;49.736;8.734;2023-07-31T02:03:19;97727.38;;;16.87;100.00
11448;BME280;43755;49.736;8.734;2023-07-31T02:05:20;97727.19;;;16.90;100.00
11448;BME280;43755;49.736;8.734;2023-07-31T02:07:22;97729.00;;;16.89;100.00
11448;BME280;43755;49.736;8.734;2023-07-31T02:09:23;97713.81;;;16.90;100.00
11448;BME280;43755;49.736;8.734;2023-07-31T02:11:24;97712.19;;;16.87;100.00
11448;BME280;43755;49.736;8.734;2023-07-31T02:13:26;97718.75;;;16.83;100.00
11448;BME280;43755;49.736;8.734;2023-07-31T02:15:29;97718.22;;;16.78;100.00
11448;BME280;43755;49.736;8.734;2023-07-31T02:17:30;97716.09;;;16.70;100.00
11448;BME280;43755;49.736;8.734;2023-07-31T02:19:32;97710.00;;;16.68;100.00
11448;BME280;43755;49.736;8.734;2023-07-31T02:21:33;97710.97;;;16.67;100.00
11448;BME280;43755;49.736;8.734;2023-07-31T02:23:34;97705.97;;;16.63;100.00
11448;BME280;43755;49.736;8.734;2023-07-31T02:25:36;97701.56;;;16.62;100.00
11448;BME280;43755;49.736;8.734;2023-07-31T02:27:37;97707.56;;;16.65;100.00
11448;BME280;43755;49.736;8.734;2023-07-31T02:29:38;97702.00;;;16.68;100.00
11448;BME280;43755;49.736;8.734;2023-07-31T02:31:41;97706.91;;;16.62;100.00
11448;BME280;43755;49.736;8.734;2023-07-31T02:33:43;97703.38;;;16.61;100.00
11448;BME280;43755;49.736;8.734;2023-07-31T02:35:44;97699.03;;;16.60;100.00
11448;BME280;43755;49.736;8.734;2023-07-31T02:37:45;97708.00;;;16.59;100.00
11448;BME280;43755;49.736;8.734;2023-07-31T02:39:47;97702.22;;;16.53;100.00
11448;BME280;43755;49.736;8.734;2023-07-31T02:41:48;97702.56;;;16.48;100.00
11448;BME280;43755;49.736;8.734;2023-07-31T02:43:49;97699.34;;;16.43;100.00
11448;BME280;43755;49.736;8.734;2023-07-31T02:45:51;97694.63;;;16.47;100.00
11448;BME280;43755;49.736;8.734;2023-07-31T02:47:54;97689.63;;;16.42;100.00
11448;BME280;43755;49.736;8.734;2023-07-31T02:49:55;97687.16;;;16.39;100.00
11448;BME280;43755;49.736;8.734;2023-07-31T02:51:56;97688.69;;;16.30;100.00
11448;BME280;43755;49.736;8.734;2023-07-31T02:53:57;97684.63;;;16.25;100.00
11448;BME280;43755;49.736;8.734;2023-07-31T02:55:59;97689.00;;;16.26;100.00
11448;BME280;43755;49.736;8.734;2023-07-31T02:58:00;97688.03;;;16.27;100.00
11448;BME280;43755;49.736;8.734;2023-07-31T03:00:02;97691.03;;;16.22;100.00
11448;BME280;43755;49.736;8.734;2023-07-31T03:02:06;97689.00;;;16.26;100.00
11448;BME280;43755;49.736;8.734;2023-07-31T03:04:08;97684.50;;;16.26;100.00
11448;BME280;43755;49.736;8.734;2023-07-31T03:06:10;97693.16;;;16.30;100.00
11448;BME280;43755;49.736;8.734;2023-07-31T03:08:11;97690.69;;;16.27;100.00
11448;BME280;43755;49.736;8.734;2023-07-31T03:10:13;97695.09;;;16.28;100.00
11448;BME280;43755;49.736;8.734;2023-07-31T03:12:14;97692.50;;;16.26;100.00
11448;BME280;43755;49.736;8.734;2023-07-31T03:14:15;97689.44;;;16.20;100.00
11448;BME280;43755;49.736;8.734;2023-07-31T03:16:17;97696.69;;;16.18;100.00
11448;BME280;43755;49.736;8.734;2023-07-31T03:18:18;97696.91;;;16.15;100.00
11448;BME280;43755;49.736;8.734;2023-07-31T03:20:20;97697.13;;;15.99;100.00
11448;BME280;43755;49.736;8.734;2023-07-31T03:22:21;97697.22;;;15.97;100.00
11448;BME280;43755;49.736;8.734;2023-07-31T03:24:23;97683.78;;;15.99;100.00
11448;BME280;43755;49.736;8.734;2023-07-31T03:26:24;97683.25;;;15.94;100.00
11448;BME280;43755;49.736;8.734;2023-07-31T03:28:26;97686.13;;;15.91;100.00
11448;BME280;43755;49.736;8.734;2023-07-31T03:30:27;97687.19;;;15.88;100.00
11448;BME280;43755;49.736;8.734;2023-07-31T03:32:29;97681.00;;;15.88;100.00
11448;BME280;43755;49.736;8.734;2023-07-31T03:34:30;97689.00;;;15.88;100.00
11448;BME280;43755;49.736;8.734;2023-07-31T03:36:33;97681.88;;;15.88;100.00
11448;BME280;43755;49.736;8.734;2023-07-31T03:38:35;97687.28;;;15.87;100.00
11448;BME280;43755;49.736;8.734;2023-07-31T03:40:36;97692.94;;;15.82;100.00
11448;BME280;43755;49.736;8.734;2023-07-31T03:42:37;97690.06;;;15.85;100.00
11448;BME280;43755;49.736;8.734;2023-07-31T03:44:39;97682.19;;;15.84;100.00
11448;BME280;43755;49.736;8.734;2023-07-31T03:46:40;97676.00;;;15.83;100.00
11448;BME280;43755;49.736;8.734;2023-07-31T03:48:41;97676.00;;;15.83;100.00
11448;BME280;43755;49.736;8.734;2023-07-31T03:50:43;97687.28;;;15.87;100.00
11448;BME280;43755;49.736;8.734;2023-07-31T03:52:46;97679.53;;;15.84;100.00
11448;BME280;43755;49.736;8.734;2023-07-31T03:54:47;97676.72;;;15.85;100.00
11448;BME280;43755;49.736;8.734;2023-07-31T03:56:49;97672.38;;;15.84;100.00
11448;BME280;43755;49.736;8.734;2023-07-31T03:58:50;97669.56;;;15.86;100.00
11448;BME280;43755;49.736;8.734;2023-07-31T04:00:51;97674.72;;;15.89;100.00
11448;BME280;43755;49.736;8.734;2023-07-31T04:02:53;97674.91;;;15.86;100.00
11448;BME280;43755;49.736;8.734;2023-07-31T04:04:54;97680.16;;;15.87;100.00
11448;BME280;43755;49.736;8.734;2023-07-31T04:06:56;97674.81;;;15.87;100.00
11448;BME280;43755;49.736;8.734;2023-07-31T04:08:58;97681.00;;;15.88;100.00
11448;BME280;43755;49.736;8.734;2023-07-31T04:10:59;97672.78;;;15.91;100.00
11448;BME280;43755;49.736;8.734;2023-07-31T04:13:00;97670.00;;;15.92;100.00
11448;BME280;43755;49.736;8.734;2023-07-31T04:15:02;97675.34;;;15.92;100.00
11448;BME280;43755;49.736;8.734;2023-07-31T04:17:03;97684.53;;;15.88;100.00
11448;BME280;43755;49.736;8.734;2023-07-31T04:19:05;97677.25;;;15.90;100.00
11448;BME280;43755;49.736;8.734;2023-07-31T04:21:06;97682.41;;;15.93;100.00
11448;BME280;43755;49.736;8.734;2023-07-31T04:23:07;97678.69;;;15.96;100.00
11448;BME280;43755;49.736;8.734;2023-07-31T04:25:09;97677.81;;;15.95;100.00
11448;BME280;43755;49.736;8.734;2023-07-31T04:27:11;97677.59;;;15.98;100.00
11448;BME280;43755;49.736;8.734;2023-07-31T04:29:12;97681.53;;;16.06;100.00
11448;BME280;43755;49.736;8.734;2023-07-31T04:31:14;97676.31;;;16.04;100.00
11448;BME280;43755;49.736;8.734;2023-07-31T04:33:15;97676.22;;;16.06;100.00
11448;BME280;43755;49.736;8.734;2023-07-31T04:35:17;97671.63;;;16.08;100.00
11448;BME280;43755;49.736;8.734;2023-07-31T04:37:18;97673.31;;;16.09;100.00
11448;BME280;43755;49.736;8.734;2023-07-31T04:39:19;97673.44;;;16.20;100.00
11448;BME280;43755;49.736;8.734;2023-07-31T04:41:22;97669.25;;;16.16;100.00
11448;BME280;43755;49.736;8.734;2023-07-31T04:43:23;97670.00;;;16.18;100.00
11448;BME280;43755;49.736;8.734;2023-07-31T04:45:25;97674.16;;;16.22;100.00
11448;BME280;43755;49.736;8.734;2023-07-31T04:47:26;97666.16;;;16.22;100.00
11448;BME280;43755;49.736;8.734;2023-07-31T04:49:28;97669.69;;;16.22;100.00
11448;BME280;43755;49.736;8.734;2023-07-31T04:51:29;97673.63;;;16.29;100.00
11448;BME280;43755;49.736;8.734;2023-07-31T04:53:30;97675.53;;;16.27;100.00
11448;BME280;43755;49.736;8.734;2023-07-31T04:55:32;97663.16;;;16.26;100.00
11448;BME280;43755;49.736;8.734;2023-07-31T04:57:34;97671.06;;;16.28;100.00
11448;BME280;43755;49.736;8.734;2023-07-31T04:59:36;97669.34;;;16.27;100.00
11448;BME280;43755;49.736;8.734;2023-07-31T05:01:37;97664.00;;;16.27;100.00
11448;BME280;43755;49.736;8.734;2023-07-31T05:03:39;97672.97;;;16.26;100.00
11448;BME280;43755;49.736;8.734;2023-07-31T05:05:40;97670.88;;;16.31;100.00
11448;BME280;43755;49.736;8.734;2023-07-31T05:07:41;97661.75;;;16.33;100.00
11448;BME280;43755;49.736;8.734;2023-07-31T05:09:43;97666.91;;;16.36;100.00
11448;BME280;43755;49.736;8.734;2023-07-31T05:11:44;97666.75;;;16.38;100.00
11448;BME280;43755;49.736;8.734;2023-07-31T05:13:47;97665.91;;;16.37;100.00
11448;BME280;43755;49.736;8.734;2023-07-31T05:15:48;97669.22;;;16.41;100.00
11448;BME280;43755;49.736;8.734;2023-07-31T05:17:50;97660.03;;;16.45;100.00
11448;BME280;43755;49.736;8.734;2023-07-31T05:19:51;97654.25;;;16.51;100.00
11448;BME280;43755;49.736;8.734;2023-07-31T05:21:53;97647.63;;;16.57;100.00
11448;BME280;43755;49.736;8.734;2023-07-31T05:23:54;97650.19;;;16.58;100.00
11448;BME280;43755;49.736;8.734;2023-07-31T05:26:02;97654.16;;;16.65;100.00
11448;BME280;43755;49.736;8.734;2023-07-31T05:28:04;97650.28;;;16.69;100.00
11448;BME280;43755;49.736;8.734;2023-07-31T05:30:08;97657.66;;;16.78;100.00
11448;BME280;43755;49.736;8.734;2023-07-31T05:32:09;97655.78;;;16.79;100.00
11448;BME280;43755;49.736;8.734;2023-07-31T05:34:11;97654.97;;;16.78;100.00
11448;BME280;43755;49.736;8.734;2023-07-31T05:36:12;97654.22;;;16.76;100.00
11448;BME280;43755;49.736;8.734;2023-07-31T05:38:13;97646.63;;;16.83;100.00
11448;BME280;43755;49.736;8.734;2023-07-31T05:40:15;97653.66;;;16.84;100.00
11448;BME280;43755;49.736;8.734;2023-07-31T05:42:16;97654.19;;;16.89;100.00
11448;BME280;43755;49.736;8.734;2023-07-31T05:44:18;97651.78;;;16.97;100.00
11448;BME280;43755;49.736;8.734;2023-07-31T05:46:20;97648.16;;;16.98;100.00
11448;BME280;43755;49.736;8.734;2023-07-31T05:48:22;97656.25;;;16.97;100.00
11448;BME280;43755;49.736;8.734;2023-07-31T05:50:23;97652.88;;;16.95;100.00
11448;BME280;43755;49.736;8.734;2023-07-31T05:52:25;97654.69;;;16.94;100.00
11448;BME280;43755;49.736;8.734;2023-07-31T05:54:26;97651.38;;;16.91;100.00
11448;BME280;43755;49.736;8.734;2023-07-31T05:56:26;97644.41;;;17.01;100.00
11448;BME280;43755;49.736;8.734;2023-07-31T05:58:28;97653.03;;;17.04;100.00
11448;BME280;43755;49.736;8.734;2023-07-31T06:00:30;97648.66;;;17.03;100.00
11448;BME280;43755;49.736;8.734;2023-07-31T06:02:32;97644.41;;;17.01;100.00
11448;BME280;43755;49.736;8.734;2023-07-31T06:04:36;97649.91;;;16.87;100.00
11448;BME280;43755;49.736;8.734;2023-07-31T06:06:38;97649.78;;;16.88;100.00
11448;BME280;43755;49.736;8.734;2023-07-31T06:08:39;97643.94;;;16.83;100.00
11448;BME280;43755;49.736;8.734;2023-07-31T06:10:41;97637.84;;;16.81;100.00
11448;BME280;43755;49.736;8.734;2023-07-31T06:12:42;97644.16;;;16.80;100.00
11448;BME280;43755;49.736;8.734;2023-07-31T06:14:43;97645.88;;;16.81;100.00
11448;BME280;43755;49.736;8.734;2023-07-31T06:16:44;97647.22;;;16.87;100.00
11448;BME280;43755;49.736;8.734;2023-07-31T06:18:47;97647.03;;;17.13;100.00
11448;BME280;43755;49.736;8.734;2023-07-31T06:20:48;97644.41;;;17.25;100.00
11448;BME280;43755;49.736;8.734;2023-07-31T06:22:53;97636.66;;;17.44;100.00
11448;BME280;43755;49.736;8.734;2023-07-31T06:24:55;97649.56;;;17.50;100.00
11448;BME280;43755;49.736;8.734;2023-07-31T06:26:56;97644.50;;;17.58;100.00
11448;BME280;43755;49.736;8.734;2023-07-31T06:28:57;97638.63;;;17.77;100.00
11448;BME280;43755;49.736;8.734;2023-07-31T06:30:59;97639.59;;;17.76;100.00
11448;BME280;43755;49.736;8.734;2023-07-31T06:32:59;97633.09;;;17.67;99.38
11448;BME280;43755;49.736;8.734;2023-07-31T06:35:02;97623.78;;;17.73;100.00
11448;BME280;43755;49.736;8.734;2023-07-31T06:37:04;97627.06;;;17.76;100.00
11448;BME280;43755;49.736;8.734;2023-07-31T06:39:06;97630.13;;;17.83;100.00
11448;BME280;43755;49.736;8.734;2023-07-31T06:41:07;97633.28;;;17.88;100.00
11448;BME280;43755;49.736;8.734;2023-07-31T06:43:09;97640.38;;;18.00;95.94
11448;BME280;43755;49.736;8.734;2023-07-31T06:45:11;97638.78;;;18.09;98.75
11448;BME280;43755;49.736;8.734;2023-07-31T06:47:12;97627.56;;;17.92;98.10
11448;BME280;43755;49.736;8.734;2023-07-31T06:49:13;97633.03;;;17.80;97.81
11448;BME280;43755;49.736;8.734;2023-07-31T06:51:17;97637.16;;;17.73;100.00
11448;BME280;43755;49.736;8.734;2023-07-31T06:53:18;97635.44;;;17.61;100.00
11448;BME280;43755;49.736;8.734;2023-07-31T06:55:20;97636.94;;;17.52;100.00
11448;BME280;43755;49.736;8.734;2023-07-31T06:57:22;97632.75;;;17.61;100.00
11448;BME280;43755;49.736;8.734;2023-07-31T06:59:24;97635.94;;;17.66;100.00
11448;BME280;43755;49.736;8.734;2023-07-31T07:01:25;97630.22;;;17.81;100.00
11448;BME280;43755;49.736;8.734;2023-07-31T07:03:27;97643.03;;;17.89;100.00
11448;BME280;43755;49.736;8.734;2023-07-31T07:05:29;97631.09;;;18.04;100.00
11448;BME280;43755;49.736;8.734;2023-07-31T07:07:32;97639.03;;;18.17;98.94
11448;BME280;43755;49.736;8.734;2023-07-31T07:09:32;97631.59;;;18.20;99.46
11448;BME280;43755;49.736;8.734;2023-07-31T07:11:33;97634.78;;;18.25;100.00
11448;BME280;43755;49.736;8.734;2023-07-31T07:13:35;97640.75;;;18.18;98.43
11448;BME280;43755;49.736;8.734;2023-07-31T07:15:36;97633.78;;;18.04;100.00
11448;BME280;43755;49.736;8.734;2023-07-31T07:17:38;97622.59;;;17.99;100.00
11448;BME280;43755;49.736;8.734;2023-07-31T07:19:40;97627.84;;;18.00;100.00
11448;BME280;43755;49.736;8.734;2023-07-31T07:21:42;97636.34;;;18.17;99.68
11448;BME280;43755;49.736;8.734;2023-07-31T07:23:44;97631.63;;;18.31;100.00
11448;BME280;43755;49.736;8.734;2023-07-31T07:25:46;97623.09;;;18.37;99.35
11448;BME280;43755;49.736;8.734;2023-07-31T07:27:48;97629.44;;;18.59;100.00
11448;BME280;43755;49.736;8.734;2023-07-31T07:29:50;97621.47;;;18.68;99.85
11448;BME280;43755;49.736;8.734;2023-07-31T07:31:51;97618.97;;;18.67;96.68
11448;BME280;43755;49.736;8.734;2023-07-31T07:33:52;97627.31;;;18.85;98.02
11448;BME280;43755;49.736;8.734;2023-07-31T07:35:54;97625.78;;;19.03;99.03
11448;BME280;43755;49.736;8.734;2023-07-31T07:37:55;97634.91;;;19.11;94.01
11448;BME280;43755;49.736;8.734;2023-07-31T07:39:58;97631.75;;;19.06;93.13
11448;BME280;43755;49.736;8.734;2023-07-31T07:42:00;97620.91;;;19.08;93.59
11448;BME280;43755;49.736;8.734;2023-07-31T07:44:01;97625.63;;;19.15;93.57
11448;BME280;43755;49.736;8.734;2023-07-31T07:46:02;97629.09;;;19.27;94.03
11448;BME280;43755;49.736;8.734;2023-07-31T07:48:04;97634.72;;;19.24;96.30
11448;BME280;43755;49.736;8.734;2023-07-31T07:50:06;97634.56;;;19.37;91.27
11448;BME280;43755;49.736;8.734;2023-07-31T07:52:08;97622.06;;;19.26;91.89
11448;BME280;43755;49.736;8.734;2023-07-31T07:54:09;97612.34;;;19.46;92.48
11448;BME280;43755;49.736;8.734;2023-07-31T07:56:12;97607.78;;;19.78;96.57
11448;BME280;43755;49.736;8.734;2023-07-31T07:58:13;97616.16;;;19.85;91.13
11448;BME280;43755;49.736;8.734;2023-07-31T08:00:15;97610.63;;;19.86;88.59
11448;BME280;43755;49.736;8.734;2023-07-31T08:02:17;97620.19;;;19.79;90.12
11448;BME280;43755;49.736;8.734;2023-07-31T08:04:18;97608.44;;;19.71;89.54
11448;BME280;43755;49.736;8.734;2023-07-31T08:06:20;97600.13;;;19.53;90.38
11448;BME280;43755;49.736;8.734;2023-07-31T08:08:22;97604.38;;;19.44;89.78
11448;BME280;43755;49.736;8.734;2023-07-31T08:10:24;97594.19;;;19.49;94.78
11448;BME280;43755;49.736;8.734;2023-07-31T08:12:26;97597.38;;;19.64;90.10
11448;BME280;43755;49.736;8.734;2023-07-31T08:14:28;97607.53;;;19.60;93.93
11448;BME280;43755;49.736;8.734;2023-07-31T08:16:29;97598.88;;;19.78;93.06
11448;BME280;43755;49.736;8.734;2023-07-31T08:18:31;97596.28;;;19.97;93.71
11448;BME280;43755;49.736;8.734;2023-07-31T08:20:33;97591.88;;;20.26;87.76
11448;BME280;43755;49.736;8.734;2023-07-31T08:22:34;97585.81;;;20.24;89.19
11448;BME280;43755;49.736;8.734;2023-07-31T08:24:35;97600.47;;;20.41;88.54
11448;BME280;43755;49.736;8.734;2023-07-31T08:26:37;97588.06;;;20.50;91.46
11448;BME280;43755;49.736;8.734;2023-07-31T08:28:40;97584.44;;;20.30;86.59
11448;BME280;43755;49.736;8.734;2023-07-31T08:30:41;97578.03;;;20.21;86.13
11448;BME280;43755;49.736;8.734;2023-07-31T08:32:43;97578.81;;;20.33;92.38
11448;BME280;43755;49.736;8.734;2023-07-31T08:34:44;97575.31;;;20.12;86.05
11448;BME280;43755;49.736;8.734;2023-07-31T08:36:45;97579.69;;;20.13;87.75
11448;BME280;43755;49.736;8.734;2023-07-31T08:38:47;97569.97;;;20.21;89.57
11448;BME280;43755;49.736;8.734;2023-07-31T08:40:50;97563.19;;;20.27;85.73
11448;BME280;43755;49.736;8.734;2023-07-31T08:42:53;97567.81;;;20.46;84.75
11448;BME280;43755;49.736;8.734;2023-07-31T08:44:59;97552.97;;;20.41;83.29
11448;BME280;43755;49.736;8.734;2023-07-31T08:47:01;97550.69;;;20.37;88.61
11448;BME280;43755;49.736;8.734;2023-07-31T08:49:04;97554.25;;;20.47;84.43
11448;BME280;43755;49.736;8.734;2023-07-31T08:51:06;97547.72;;;20.40;81.63
11448;BME280;43755;49.736;8.734;2023-07-31T08:53:07;97554.97;;;20.49;83.99
11448;BME280;43755;49.736;8.734;2023-07-31T08:55:09;97547.59;;;20.51;84.06
11448;BME280;43755;49.736;8.734;2023-07-31T08:57:11;97548.50;;;20.61;85.62
11448;BME280;43755;49.736;8.734;2023-07-31T08:59:13;97549.31;;;20.52;86.58
11448;BME280;43755;49.736;8.734;2023-07-31T09:01:19;97550.63;;;20.27;82.09
11448;BME280;43755;49.736;8.734;2023-07-31T09:03:22;97543.94;;;20.12;86.10
11448;BME280;43755;49.736;8.734;2023-07-31T09:05:26;97540.22;;;20.03;84.48
11448;BME280;43755;49.736;8.734;2023-07-31T09:07:28;97551.66;;;19.96;87.87
11448;BME280;43755;49.736;8.734;2023-07-31T09:09:30;97554.50;;;20.04;89.09
11448;BME280;43755;49.736;8.734;2023-07-31T09:11:32;97560.59;;;20.06;85.87
11448;BME280;43755;49.736;8.734;2023-07-31T09:13:34;97550.38;;;20.00;85.97
11448;BME280;43755;49.736;8.734;2023-07-31T09:15:35;97548.53;;;20.31;89.95
11448;BME280;43755;49.736;8.734;2023-07-31T09:17:38;97543.13;;;20.61;89.54
11448;BME280;43755;49.736;8.734;2023-07-31T09:19:40;97542.44;;;20.78;82.95
11448;BME280;43755;49.736;8.734;2023-07-31T09:21:47;97545.13;;;20.88;84.97
11448;BME280;43755;49.736;8.734;2023-07-31T09:23:49;97542.88;;;20.83;83.14
11448;BME280;43755;49.736;8.734;2023-07-31T09:25:53;97543.13;;;21.09;86.34
11448;BME280;43755;49.736;8.734;2023-07-31T09:27:56;97528.28;;;20.86;81.66
11448;BME280;43755;49.736;8.734;2023-07-31T09:29:58;97524.44;;;20.69;81.83
11448;BME280;43755;49.736;8.734;2023-07-31T09:32:00;97538.56;;;20.42;86.19
11448;BME280;43755;49.736;8.734;2023-07-31T09:34:03;97539.72;;;20.19;87.52
11448;BME280;43755;49.736;8.734;2023-07-31T09:36:04;97542.00;;;20.24;89.95
11448;BME280;43755;49.736;8.734;2023-07-31T09:38:07;97535.75;;;20.14;89.64
11448;BME280;43755;49.736;8.734;2023-07-31T09:40:24;97532.31;;;20.02;89.52
11448;BME280;43755;49.736;8.734;2023-07-31T09:42:26;97535.38;;;19.97;87.57
11448;BME280;43755;49.736;8.734;2023-07-31T09:44:37;97526.72;;;19.84;89.47
11448;BME280;43755;49.736;8.734;2023-07-31T09:46:39;97530.31;;;20.04;91.25
11448;BME280;43755;49.736;8.734;2023-07-31T09:48:40;97530.53;;;20.22;90.88
11448;BME280;43755;49.736;8.734;2023-07-31T09:50:44;97528.09;;;20.49;93.39
11448;BME280;43755;49.736;8.734;2023-07-31T09:52:46;97522.44;;;20.62;86.80
11448;BME280;43755;49.736;8.734;2023-07-31T09:54:46;97514.41;;;20.71;86.28
11448;BME280;43755;49.736;8.734;2023-07-31T09:56:48;97512.00;;;20.88;84.01
11448;BME280;43755;49.736;8.734;2023-07-31T09:58:50;97514.72;;;21.16;86.09
11448;BME280;43755;49.736;8.734;2023-07-31T10:00:52;97524.34;;;21.19;79.13
11448;BME280;43755;49.736;8.734;2023-07-31T10:02:54;97523.03;;;21.04;78.59
11448;BME280;43755;49.736;8.734;2023-07-31T10:05:01;97518.66;;;21.12;83.63
11448;BME280;43755;49.736;8.734;2023-07-31T10:07:05;97520.91;;;20.98;79.19
11448;BME280;43755;49.736;8.734;2023-07-31T10:09:08;97516.41;;;21.17;79.84
11448;BME280;43755;49.736;8.734;2023-07-31T10:11:11;97508.34;;;21.08;79.03
11448;BME280;43755;49.736;8.734;2023-07-31T10:13:15;97505.09;;;20.95;79.69
11448;BME280;43755;49.736;8.734;2023-07-31T10:15:17;97506.06;;;20.74;77.41
11448;BME280;43755;49.736;8.734;2023-07-31T10:17:19;97500.69;;;20.65;81.88
11448;BME280;43755;49.736;8.734;2023-07-31T10:19:22;97496.75;;;20.78;81.07
11448;BME280;43755;49.736;8.734;2023-07-31T10:21:24;97500.41;;;20.87;80.92
11448;BME280;43755;49.736;8.734;2023-07-31T10:23:27;97494.19;;;21.06;79.92
11448;BME280;43755;49.736;8.734;2023-07-31T10:25:29;97484.56;;;20.65;77.58
11448;BME280;43755;49.736;8.734;2023-07-31T10:27:30;97481.00;;;20.74;78.73
11448;BME280;43755;49.736;8.734;2023-07-31T10:29:32;97478.63;;;20.90;78.97
11448;BME280;43755;49.736;8.734;2023-07-31T10:31:34;97479.44;;;21.10;80.39
11448;BME280;43755;49.736;8.734;2023-07-31T10:33:37;97483.97;;;21.29;79.08
11448;BME280;43755;49.736;8.734;2023-07-31T10:35:39;97484.31;;;21.62;77.95
11448;BME280;43755;49.736;8.734;2023-07-31T10:37:41;97483.25;;;21.83;75.58
11448;BME280;43755;49.736;8.734;2023-07-31T10:39:55;97486.75;;;21.93;75.64
11448;BME280;43755;49.736;8.734;2023-07-31T10:41:56;97487.34;;;21.96;73.26